sensor_id;sensor_type;location;lat;lon;timestamp;pressure;altitude;pressure_sealevel;temperature;humidity
22311;BME280;11323;49.610;11.016;2022-12-18T00:04:47;99446.59;;;10.93;66.16
22311;BME280;11323;49.610;11.016;2022-12-18T00:09:47;99437.81;;;10.94;64.95
22311;BME280;11323;49.610;11.016;2022-12-18T00:14:47;99450.28;;;11.02;64.67
22311;BME280;11323;49.610;11.016;2022-12-18T00:19:48;99440.47;;;11.06;65.05
22311;BME280;11323;49.610;11.016;2022-12-18T00:24:48;99435.97;;;11.08;65.03
22311;BME280;11323;49.610;11.016;2022-12-18T00:29:49;99436.31;;;11.03;65.10
22311;BME280;11323;49.610;11.016;2022-12-18T00:34:49;99440.00;;;11.01;65.29
22311;BME280;11323;49.610;11.016;2022-12-18T00:39:50;99446.38;;;10.96;65.41
22311;BME280;11323;49.610;11.016;2022-12-18T00:44:50;99438.06;;;10.91;65.28
22311;BME280;11323;49.610;11.016;2022-12-18T00:49:50;99434.75;;;10.89;65.53
22311;BME280;11323;49.610;11.016;2022-12-18T00:54:51;99412.66;;;10.82;65.59
22311;BME280;11323;49.610;11.016;2022-12-18T00:59:51;99421.56;;;10.91;65.08
22311;BME280;11323;49.610;11.016;2022-12-18T01:04:52;99430.94;;;10.93;65.27
22311;BME280;11323;49.610;11.016;2022-12-18T01:09:53;99446.38;;;10.96;65.05
22311;BME280;11323;49.610;11.016;2022-12-18T01:14:54;99456.59;;;11.00;65.45
22311;BME280;11323;49.610;11.016;2022-12-18T01:19:54;99466.28;;;10.97;65.34
22311;BME280;11323;49.610;11.016;2022-12-18T01:24:55;99477.88;;;10.93;65.61
22311;BME280;11323;49.610;11.016;2022-12-18T01:29:56;99479.19;;;10.88;65.64
22311;BME280;11323;49.610;11.016;2022-12-18T01:34:57;99485.47;;;10.85;65.40
22311;BME280;11323;49.610;11.016;2022-12-18T01:39:57;99488.28;;;10.82;65.71
22311;BME280;11323;49.610;11.016;2022-12-18T01:45:04;99489.47;;;10.78;65.46
22311;BME280;11323;49.610;11.016;2022-12-18T01:50:46;99491.13;;;10.79;65.18
22311;BME280;11323;49.610;11.016;2022-12-18T01:55:56;99483.78;;;10.84;65.16
22311;BME280;11323;49.610;11.016;2022-12-18T02:00:57;99484.50;;;10.86;65.29
22311;BME280;11323;49.610;11.016;2022-12-18T02:06:10;99486.06;;;10.89;65.07
22311;BME280;11323;49.610;11.016;2022-12-18T02:17:04;99477.47;;;10.75;65.33
22311;BME280;11323;49.610;11.016;2022-12-18T02:27:36;99481.88;;;10.75;65.54
22311;BME280;11323;49.610;11.016;2022-12-18T02:32:41;99471.56;;;10.73;65.70
22311;BME280;11323;49.610;11.016;2022-12-18T02:37:44;99495.97;;;10.72;65.51
22311;BME280;11323;49.610;11.016;2022-12-18T02:42:47;99498.22;;;10.77;64.96
22311;BME280;11323;49.610;11.016;2022-12-18T02:47:50;99508.66;;;10.77;65.27
22311;BME280;11323;49.610;11.016;2022-12-18T03:03:52;99529.06;;;10.83;65.42
22311;BME280;11323;49.610;11.016;2022-12-18T03:09:03;99524.19;;;10.78;65.41
22311;BME280;11323;49.610;11.016;2022-12-18T03:14:06;99493.22;;;10.74;65.43
22311;BME280;11323;49.610;11.016;2022-12-18T03:19:11;99501.41;;;10.69;65.40
22311;BME280;11323;49.610;11.016;2022-12-18T03:24:17;99508.28;;;10.70;65.33
22311;BME280;11323;49.610;11.016;2022-12-18T03:29:25;99509.94;;;10.71;64.89
22311;BME280;11323;49.610;11.016;2022-12-18T03:34:34;99522.66;;;10.76;65.22
22311;BME280;11323;49.610;11.016;2022-12-18T03:39:39;99520.84;;;10.76;65.31
22311;BME280;11323;49.610;11.016;2022-12-18T03:45:02;99532.75;;;10.80;65.14
22311;BME280;11323;49.610;11.016;2022-12-18T03:50:14;99541.63;;;10.78;65.26
22311;BME280;11323;49.610;11.016;2022-12-18T03:55:21;99542.78;;;10.74;65.13
22311;BME280;11323;49.610;11.016;2022-12-18T04:00:30;99543.94;;;10.70;65.07
22311;BME280;11323;49.610;11.016;2022-12-18T04:05:40;99537.16;;;10.67;64.98
22311;BME280;11323;49.610;11.016;2022-12-18T04:10:42;99541.66;;;10.65;65.02
22311;BME280;11323;49.610;11.016;2022-12-18T04:15:43;99539.16;;;10.63;64.92
22311;BME280;11323;49.610;11.016;2022-12-18T04:20:48;99543.22;;;10.68;64.96
22311;BME280;11323;49.610;11.016;2022-12-18T04:25:49;99547.25;;;10.72;65.00
22311;BME280;11323;49.610;11.016;2022-12-18T04:31:00;99549.78;;;10.73;65.11
22311;BME280;11323;49.610;11.016;2022-12-18T04:36:01;99550.81;;;10.71;65.13
22311;BME280;11323;49.610;11.016;2022-12-18T04:41:02;99548.22;;;10.71;65.10
22311;BME280;11323;49.610;11.016;2022-12-18T04:46:07;99539.69;;;10.69;65.21
22311;BME280;11323;49.610;11.016;2022-12-18T04:51:07;99545.13;;;10.65;65.11
22311;BME280;11323;49.610;11.016;2022-12-18T04:56:13;99539.38;;;10.60;65.26
22311;BME280;11323;49.610;11.016;2022-12-18T05:01:16;99538.44;;;10.61;65.62
22311;BME280;11323;49.610;11.016;2022-12-18T05:06:17;99546.50;;;10.58;65.24
22311;BME280;11323;49.610;11.016;2022-12-18T05:11:18;99533.88;;;10.52;65.52
22311;BME280;11323;49.610;11.016;2022-12-18T05:16:18;99542.66;;;10.51;65.24
22311;BME280;11323;49.610;11.016;2022-12-18T05:21:19;99547.13;;;10.49;65.34
22311;BME280;11323;49.610;11.016;2022-12-18T05:26:19;99558.75;;;10.45;65.36
22311;BME280;11323;49.610;11.016;2022-12-18T05:31:20;99562.28;;;10.44;65.47
22311;BME280;11323;49.610;11.016;2022-12-18T05:36:20;99553.00;;;10.40;65.21
22311;BME280;11323;49.610;11.016;2022-12-18T05:41:21;99560.81;;;10.40;65.43
22311;BME280;11323;49.610;11.016;2022-12-18T05:46:21;99563.00;;;10.33;64.99
22311;BME280;11323;49.610;11.016;2022-12-18T05:51:22;99563.84;;;10.33;65.21
22311;BME280;11323;49.610;11.016;2022-12-18T05:56:22;99559.16;;;10.39;65.74
22311;BME280;11323;49.610;11.016;2022-12-18T06:01:26;99565.31;;;10.38;65.42
22311;BME280;11323;49.610;11.016;2022-12-18T06:06:28;99559.56;;;10.32;65.44
22311;BME280;11323;49.610;11.016;2022-12-18T06:11:29;99579.06;;;10.27;65.36
22311;BME280;11323;49.610;11.016;2022-12-18T06:16:30;99589.56;;;10.25;65.53
22311;BME280;11323;49.610;11.016;2022-12-18T06:21:31;99580.34;;;10.21;65.17
22311;BME280;11323;49.610;11.016;2022-12-18T06:26:32;99586.16;;;10.25;65.55
22311;BME280;11323;49.610;11.016;2022-12-18T06:31:32;99577.72;;;10.21;65.31
22311;BME280;11323;49.610;11.016;2022-12-18T06:36:33;99572.84;;;10.16;65.20
22311;BME280;11323;49.610;11.016;2022-12-18T06:41:33;99596.38;;;10.15;65.20
22311;BME280;11323;49.610;11.016;2022-12-18T06:46:33;99586.19;;;10.12;65.51
22311;BME280;11323;49.610;11.016;2022-12-18T06:51:34;99595.13;;;10.08;65.34
22311;BME280;11323;49.610;11.016;2022-12-18T06:56:35;99603.88;;;10.07;65.27
22311;BME280;11323;49.610;11.016;2022-12-18T07:01:35;99604.94;;;10.04;65.52
22311;BME280;11323;49.610;11.016;2022-12-18T07:06:36;99603.16;;;10.04;65.60
22311;BME280;11323;49.610;11.016;2022-12-18T07:11:36;99589.63;;;9.99;65.53
22311;BME280;11323;49.610;11.016;2022-12-18T07:16:36;99590.56;;;9.98;65.89
22311;BME280;11323;49.610;11.016;2022-12-18T07:21:37;99580.88;;;10.00;65.50
22311;BME280;11323;49.610;11.016;2022-12-18T07:26:37;99591.38;;;9.99;65.68
22311;BME280;11323;49.610;11.016;2022-12-18T07:31:38;99588.28;;;9.94;65.62
22311;BME280;11323;49.610;11.016;2022-12-18T07:36:38;99590.56;;;9.98;65.38
22311;BME280;11323;49.610;11.016;2022-12-18T07:41:39;99595.56;;;10.01;65.41
22311;BME280;11323;49.610;11.016;2022-12-18T07:46:45;99603.16;;;10.04;65.59
22311;BME280;11323;49.610;11.016;2022-12-18T07:51:46;99617.63;;;10.09;65.46
22311;BME280;11323;49.610;11.016;2022-12-18T07:56:49;99623.59;;;10.11;65.49
22311;BME280;11323;49.610;11.016;2022-12-18T08:01:49;99634.75;;;10.13;65.80
22311;BME280;11323;49.610;11.016;2022-12-18T08:06:50;99631.16;;;10.14;65.78
22311;BME280;11323;49.610;11.016;2022-12-18T08:11:50;99633.56;;;10.17;65.81
22311;BME280;11323;49.610;11.016;2022-12-18T08:16:50;99619.50;;;10.19;65.73
22311;BME280;11323;49.610;11.016;2022-12-18T08:21:51;99624.63;;;10.21;65.97
22311;BME280;11323;49.610;11.016;2022-12-18T08:26:51;99633.16;;;10.23;65.93
22311;BME280;11323;49.610;11.016;2022-12-18T08:31:52;99631.38;;;10.24;65.50
22311;BME280;11323;49.610;11.016;2022-12-18T08:36:52;99633.88;;;10.25;65.88
22311;BME280;11323;49.610;11.016;2022-12-18T08:41:52;99640.13;;;10.23;66.01
22311;BME280;11323;49.610;11.016;2022-12-18T08:47:11;99635.44;;;10.15;66.33
22311;BME280;11323;49.610;11.016;2022-12-18T08:52:12;99628.38;;;10.17;66.48
22311;BME280;11323;49.610;11.016;2022-12-18T08:57:15;99620.56;;;10.17;66.50
22311;BME280;11323;49.610;11.016;2022-12-18T09:02:16;99625.66;;;10.18;66.56
22311;BME280;11323;49.610;11.016;2022-12-18T09:07:17;99628.28;;;10.18;66.62
22311;BME280;11323;49.610;11.016;2022-12-18T09:12:17;99623.88;;;10.19;66.46
22311;BME280;11323;49.610;11.016;2022-12-18T09:17:18;99617.84;;;10.18;66.52
22311;BME280;11323;49.610;11.016;2022-12-18T09:22:18;99623.56;;;10.24;65.87
22311;BME280;11323;49.610;11.016;2022-12-18T09:27:18;99629.41;;;10.27;65.87
22311;BME280;11323;49.610;11.016;2022-12-18T09:32:19;99621.81;;;10.24;65.75
22311;BME280;11323;49.610;11.016;2022-12-18T09:37:20;99603.34;;;10.27;65.71
22311;BME280;11323;49.610;11.016;2022-12-18T09:42:21;99596.47;;;10.26;65.73
22311;BME280;11323;49.610;11.016;2022-12-18T09:47:27;99588.66;;;10.26;65.63
22311;BME280;11323;49.610;11.016;2022-12-18T09:52:36;99596.38;;;10.28;65.26
22311;BME280;11323;49.610;11.016;2022-12-18T09:57:42;99584.50;;;10.24;65.39
22311;BME280;11323;49.610;11.016;2022-12-18T10:02:45;99594.69;;;10.40;66.13
22311;BME280;11323;49.610;11.016;2022-12-18T10:12:59;99577.53;;;10.61;67.02
22311;BME280;11323;49.610;11.016;2022-12-18T10:18:32;99579.81;;;10.66;67.21
22311;BME280;11323;49.610;11.016;2022-12-18T10:28:47;99561.03;;;10.74;67.30
22311;BME280;11323;49.610;11.016;2022-12-18T10:33:48;99571.13;;;10.78;67.81
22311;BME280;11323;49.610;11.016;2022-12-18T10:38:48;99557.28;;;10.78;67.77
22311;BME280;11323;49.610;11.016;2022-12-18T10:49:24;99586.03;;;10.89;67.85
22311;BME280;11323;49.610;11.016;2022-12-18T10:54:25;99586.50;;;10.94;67.55
22311;BME280;11323;49.610;11.016;2022-12-18T10:59:30;99584.41;;;11.00;67.48
22311;BME280;11323;49.610;11.016;2022-12-18T11:04:40;99583.94;;;11.06;67.73
22311;BME280;11323;49.610;11.016;2022-12-18T11:10:03;99585.13;;;11.02;68.00
22311;BME280;11323;49.610;11.016;2022-12-18T11:15:03;99555.25;;;11.06;68.07
22311;BME280;11323;49.610;11.016;2022-12-18T11:20:07;99561.91;;;11.10;67.95
22311;BME280;11323;49.610;11.016;2022-12-18T11:25:19;99558.25;;;11.12;68.39
22311;BME280;11323;49.610;11.016;2022-12-18T11:35:40;99551.00;;;11.16;68.20
22311;BME280;11323;49.610;11.016;2022-12-18T11:40:45;99542.25;;;11.17;68.30
22311;BME280;11323;49.610;11.016;2022-12-18T11:46:01;99535.75;;;11.23;68.18
22311;BME280;11323;49.610;11.016;2022-12-18T11:51:08;99520.47;;;11.30;67.75
22311;BME280;11323;49.610;11.016;2022-12-18T11:56:32;99509.06;;;11.31;68.10
22311;BME280;11323;49.610;11.016;2022-12-18T12:01:43;99511.69;;;11.31;68.83
22311;BME280;11323;49.610;11.016;2022-12-18T12:12:17;99513.31;;;11.20;68.21
22311;BME280;11323;49.610;11.016;2022-12-18T12:18:05;99502.28;;;11.17;68.06
22311;BME280;11323;49.610;11.016;2022-12-18T12:33:49;99488.66;;;11.13;67.59
22311;BME280;11323;49.610;11.016;2022-12-18T12:38:59;99485.31;;;11.11;67.49
22311;BME280;11323;49.610;11.016;2022-12-18T12:44:04;99489.84;;;11.20;67.30
22311;BME280;11323;49.610;11.016;2022-12-18T12:49:13;99484.16;;;11.26;67.22
22311;BME280;11323;49.610;11.016;2022-12-18T12:54:23;99482.03;;;11.32;67.43
22311;BME280;11323;49.610;11.016;2022-12-18T12:59:42;99484.28;;;11.36;67.66
22311;BME280;11323;49.610;11.016;2022-12-18T13:15:24;99479.44;;;11.43;68.59
22311;BME280;11323;49.610;11.016;2022-12-18T13:20:33;99460.22;;;11.44;68.18
22311;BME280;11323;49.610;11.016;2022-12-18T13:25:36;99456.66;;;11.45;68.55
22311;BME280;11323;49.610;11.016;2022-12-18T13:35:51;99481.56;;;11.49;68.27
22311;BME280;11323;49.610;11.016;2022-12-18T13:40:55;99486.69;;;11.51;68.08
22311;BME280;11323;49.610;11.016;2022-12-18T13:51:08;99455.00;;;11.67;68.30
22311;BME280;11323;49.610;11.016;2022-12-18T13:56:09;99451.44;;;11.68;68.40
22311;BME280;11323;49.610;11.016;2022-12-18T14:01:22;99451.44;;;11.68;68.60
22311;BME280;11323;49.610;11.016;2022-12-18T14:06:23;99444.34;;;11.70;68.91
22311;BME280;11323;49.610;11.016;2022-12-18T14:11:24;99428.66;;;11.70;69.06
22311;BME280;11323;49.610;11.016;2022-12-18T14:16:25;99435.53;;;11.71;69.06
22311;BME280;11323;49.610;11.016;2022-12-18T14:21:27;99450.16;;;11.73;68.95
22311;BME280;11323;49.610;11.016;2022-12-18T14:26:30;99470.19;;;11.73;69.01
22311;BME280;11323;49.610;11.016;2022-12-18T14:31:31;99462.34;;;11.73;69.13
22311;BME280;11323;49.610;11.016;2022-12-18T14:36:32;99472.56;;;11.76;69.50
22311;BME280;11323;49.610;11.016;2022-12-18T14:41:32;99474.97;;;11.79;69.18
22311;BME280;11323;49.610;11.016;2022-12-18T14:46:38;99471.50;;;11.90;69.36
22311;BME280;11323;49.610;11.016;2022-12-18T14:51:39;99471.84;;;11.97;69.14
22311;BME280;11323;49.610;11.016;2022-12-18T14:57:20;99461.41;;;11.97;69.33
22311;BME280;11323;49.610;11.016;2022-12-18T15:02:26;99470.94;;;11.98;69.53
22311;BME280;11323;49.610;11.016;2022-12-18T15:07:45;99462.13;;;11.87;69.39
22311;BME280;11323;49.610;11.016;2022-12-18T15:28:35;99471.41;;;11.80;68.13
22311;BME280;11323;49.610;11.016;2022-12-18T15:33:42;99475.06;;;11.78;67.78
22311;BME280;11323;49.610;11.016;2022-12-18T15:38:52;99476.72;;;11.79;67.60
22311;BME280;11323;49.610;11.016;2022-12-18T15:43:53;99466.41;;;11.77;66.81
22311;BME280;11323;49.610;11.016;2022-12-18T15:48:55;99472.56;;;11.76;67.19
22311;BME280;11323;49.610;11.016;2022-12-18T15:53:58;99472.81;;;11.84;67.27
22311;BME280;11323;49.610;11.016;2022-12-18T15:58:59;99475.91;;;11.89;67.59
22311;BME280;11323;49.610;11.016;2022-12-18T16:04:00;99474.00;;;11.92;68.02
22311;BME280;11323;49.610;11.016;2022-12-18T16:09:00;99459.88;;;11.94;68.10
22311;BME280;11323;49.610;11.016;2022-12-18T16:14:01;99473.75;;;11.95;67.88
22311;BME280;11323;49.610;11.016;2022-12-18T16:19:01;99478.78;;;11.98;67.70
22311;BME280;11323;49.610;11.016;2022-12-18T16:24:01;99473.53;;;11.98;68.03
22311;BME280;11323;49.610;11.016;2022-12-18T16:29:02;99466.63;;;11.97;68.13
22311;BME280;11323;49.610;11.016;2022-12-18T16:34:22;99461.63;;;11.94;68.71
22311;BME280;11323;49.610;11.016;2022-12-18T16:39:23;99449.53;;;11.93;69.04
22311;BME280;11323;49.610;11.016;2022-12-18T16:44:23;99454.41;;;11.86;69.75
22311;BME280;11323;49.610;11.016;2022-12-18T16:49:23;99458.34;;;11.92;69.40
22311;BME280;11323;49.610;11.016;2022-12-18T16:54:24;99459.28;;;11.90;69.21
22311;BME280;11323;49.610;11.016;2022-12-18T16:59:25;99463.09;;;11.98;69.77
22311;BME280;11323;49.610;11.016;2022-12-18T17:04:26;99457.13;;;12.07;69.73
22311;BME280;11323;49.610;11.016;2022-12-18T17:09:26;99445.72;;;12.08;69.02
22311;BME280;11323;49.610;11.016;2022-12-18T17:14:26;99437.91;;;12.08;68.69
22311;BME280;11323;49.610;11.016;2022-12-18T17:19:27;99446.69;;;12.07;68.23
22311;BME280;11323;49.610;11.016;2022-12-18T17:24:28;99448.59;;;12.05;68.30
22311;BME280;11323;49.610;11.016;2022-12-18T17:29:28;99445.28;;;12.03;67.84
22311;BME280;11323;49.610;11.016;2022-12-18T17:34:29;99439.56;;;12.09;67.93
22311;BME280;11323;49.610;11.016;2022-12-18T17:39:29;99439.31;;;12.12;67.94
22311;BME280;11323;49.610;11.016;2022-12-18T17:44:30;99438.81;;;12.18;68.45
22311;BME280;11323;49.610;11.016;2022-12-18T17:49:30;99441.34;;;12.20;68.54
22311;BME280;11323;49.610;11.016;2022-12-18T17:54:30;99434.06;;;12.24;67.94
22311;BME280;11323;49.610;11.016;2022-12-18T17:59:33;99427.91;;;12.25;68.71
22311;BME280;11323;49.610;11.016;2022-12-18T18:04:33;99438.94;;;12.28;68.49
22311;BME280;11323;49.610;11.016;2022-12-18T18:09:34;99420.50;;;12.30;68.58
22311;BME280;11323;49.610;11.016;2022-12-18T18:14:34;99422.78;;;12.23;68.69
22311;BME280;11323;49.610;11.016;2022-12-18T18:19:35;99427.66;;;12.16;68.97
22311;BME280;11323;49.610;11.016;2022-12-18T18:24:35;99409.34;;;12.16;69.45
22311;BME280;11323;49.610;11.016;2022-12-18T18:29:36;99419.00;;;12.16;69.47
22311;BME280;11323;49.610;11.016;2022-12-18T18:34:36;99417.91;;;12.18;69.76
22311;BME280;11323;49.610;11.016;2022-12-18T18:39:36;99418.34;;;12.35;69.01
22311;BME280;11323;49.610;11.016;2022-12-18T18:44:37;99406.31;;;12.44;69.26
22311;BME280;11323;49.610;11.016;2022-12-18T18:49:37;99405.25;;;12.46;68.97
22311;BME280;11323;49.610;11.016;2022-12-18T18:54:38;99400.00;;;12.46;68.91
22311;BME280;11323;49.610;11.016;2022-12-18T18:59:38;99398.09;;;12.48;69.31
22311;BME280;11323;49.610;11.016;2022-12-18T19:04:39;99387.69;;;12.37;69.16
22311;BME280;11323;49.610;11.016;2022-12-18T19:09:39;99395.53;;;12.37;68.57
22311;BME280;11323;49.610;11.016;2022-12-18T19:14:40;99387.09;;;12.33;68.37
22311;BME280;11323;49.610;11.016;2022-12-18T19:19:41;99381.03;;;12.33;68.33
22311;BME280;11323;49.610;11.016;2022-12-18T19:24:41;99370.59;;;12.33;68.01
22311;BME280;11323;49.610;11.016;2022-12-18T19:29:42;99378.19;;;12.36;67.47
22311;BME280;11323;49.610;11.016;2022-12-18T19:34:42;99374.63;;;12.37;67.50
22311;BME280;11323;49.610;11.016;2022-12-18T19:39:43;99366.63;;;12.39;67.36
22311;BME280;11323;49.610;11.016;2022-12-18T19:44:43;99379.84;;;12.37;68.08
22311;BME280;11323;49.610;11.016;2022-12-18T19:49:46;99374.09;;;12.43;68.10
22311;BME280;11323;49.610;11.016;2022-12-18T19:54:47;99381.25;;;12.41;68.34
22311;BME280;11323;49.610;11.016;2022-12-18T19:59:47;99370.03;;;12.50;68.26
22311;BME280;11323;49.610;11.016;2022-12-18T20:04:48;99372.16;;;12.57;67.94
22311;BME280;11323;49.610;11.016;2022-12-18T20:09:48;99373.09;;;12.56;67.93
22311;BME280;11323;49.610;11.016;2022-12-18T20:14:49;99366.22;;;12.55;67.67
22311;BME280;11323;49.610;11.016;2022-12-18T20:19:49;99372.84;;;12.59;67.73
22311;BME280;11323;49.610;11.016;2022-12-18T20:24:49;99367.63;;;12.59;67.66
22311;BME280;11323;49.610;11.016;2022-12-18T20:29:50;99357.16;;;12.59;67.56
22311;BME280;11323;49.610;11.016;2022-12-18T20:34:50;99365.97;;;12.58;67.25
22311;BME280;11323;49.610;11.016;2022-12-18T20:39:51;99357.41;;;12.56;67.13
22311;BME280;11323;49.610;11.016;2022-12-18T20:44:52;99373.09;;;12.56;67.31
22311;BME280;11323;49.610;11.016;2022-12-18T20:49:52;99375.47;;;12.59;67.39
22311;BME280;11323;49.610;11.016;2022-12-18T20:54:52;99360.34;;;12.62;67.25
22311;BME280;11323;49.610;11.016;2022-12-18T20:59:53;99346.69;;;12.59;67.49
22311;BME280;11323;49.610;11.016;2022-12-18T21:04:53;99338.72;;;12.60;67.20
22311;BME280;11323;49.610;11.016;2022-12-18T21:09:54;99334.13;;;12.52;67.56
22311;BME280;11323;49.610;11.016;2022-12-18T21:14:54;99323.22;;;12.47;67.61
22311;BME280;11323;49.610;11.016;2022-12-18T21:19:55;99313.00;;;12.44;67.78
22311;BME280;11323;49.610;11.016;2022-12-18T21:24:55;99332.59;;;12.50;66.99
22311;BME280;11323;49.610;11.016;2022-12-18T21:29:56;99333.16;;;12.54;67.00
22311;BME280;11323;49.610;11.016;2022-12-18T21:34:57;99318.56;;;12.51;67.00
22311;BME280;11323;49.610;11.016;2022-12-18T21:39:57;99324.88;;;12.48;66.93
22311;BME280;11323;49.610;11.016;2022-12-18T21:44:57;99318.78;;;12.38;66.50
22311;BME280;11323;49.610;11.016;2022-12-18T21:49:59;99311.28;;;12.33;66.85
22311;BME280;11323;49.610;11.016;2022-12-18T21:55:00;99303.00;;;12.28;66.53
22311;BME280;11323;49.610;11.016;2022-12-18T22:00:01;99299.09;;;12.23;66.08
22311;BME280;11323;49.610;11.016;2022-12-18T22:05:12;99300.44;;;12.17;66.65
22311;BME280;11323;49.610;11.016;2022-12-18T22:10:12;99311.72;;;12.17;66.25
22311;BME280;11323;49.610;11.016;2022-12-18T22:15:13;99302.00;;;12.08;66.30
22311;BME280;11323;49.610;11.016;2022-12-18T22:20:13;99314.13;;;12.09;66.43
22311;BME280;11323;49.610;11.016;2022-12-18T22:25:15;99303.91;;;12.06;65.97
22311;BME280;11323;49.610;11.016;2022-12-18T22:30:15;99287.09;;;11.99;66.33
22311;BME280;11323;49.610;11.016;2022-12-18T22:35:15;99341.97;;;11.99;66.23
22311;BME280;11323;49.610;11.016;2022-12-18T22:40:18;99321.25;;;11.96;66.00
22311;BME280;11323;49.610;11.016;2022-12-18T22:45:23;99311.19;;;11.91;66.36
22311;BME280;11323;49.610;11.016;2022-12-18T22:50:23;99307.28;;;11.85;66.55
22311;BME280;11323;49.610;11.016;2022-12-18T22:55:24;99316.06;;;11.84;65.83
22311;BME280;11323;49.610;11.016;2022-12-18T23:00:25;99319.28;;;11.77;65.96
22311;BME280;11323;49.610;11.016;2022-12-18T23:05:26;99303.91;;;11.73;65.86
22311;BME280;11323;49.610;11.016;2022-12-18T23:10:26;99311.63;;;11.64;65.70
22311;BME280;11323;49.610;11.016;2022-12-18T23:15:26;99310.69;;;11.65;65.89
22311;BME280;11323;49.610;11.016;2022-12-18T23:20:27;99289.44;;;11.58;65.81
22311;BME280;11323;49.610;11.016;2022-12-18T23:25:27;99298.22;;;11.57;65.37
22311;BME280;11323;49.610;11.016;2022-12-18T23:30:28;99309.97;;;11.51;65.30
22311;BME280;11323;49.610;11.016;2022-12-18T23:35:28;99314.38;;;11.51;65.51
22311;BME280;11323;49.610;11.016;2022-12-18T23:40:29;99310.25;;;11.48;65.54
22311;BME280;11323;49.610;11.016;2022-12-18T23:45:29;99316.78;;;11.42;65.69
22311;BME280;11323;49.610;11.016;2022-12-18T23:50:29;99318.53;;;11.42;65.88
22311;BME280;11323;49.610;11.016;2022-12-18T23:55:30;99306.00;;;11.36;65.66
